createdAt,value
2022-09-22T00:00:22.555Z,78.08
2022-09-22T00:05:15.071Z,77.89
2022-09-22T00:10:07.821Z,78.37
2022-09-22T00:14:59.601Z,78.93
2022-09-22T00:19:51.244Z,79.26
2022-09-22T00:24:43.454Z,79.95
2022-09-22T00:29:35.130Z,80.10
2022-09-22T00:34:27.852Z,80.32
2022-09-22T00:39:19.953Z,80.72
2022-09-22T00:44:27.042Z,80.87
2022-09-22T00:49:23.173Z,81.74
2022-09-22T00:54:19.085Z,82.42
2022-09-22T00:59:14.708Z,82.64
2022-09-22T01:04:07.787Z,83.85
2022-09-22T01:09:00.126Z,83.87
2022-09-22T01:13:57.020Z,83.76
2022-09-22T01:19:07.453Z,83.37
2022-09-22T01:24:02.384Z,84.42
2022-09-22T01:29:21.878Z,83.99
2022-09-22T01:34:41.522Z,84.51
2022-09-22T01:39:43.531Z,84.32
2022-09-22T01:44:43.421Z,84.92
2022-09-22T01:49:39.296Z,85.51
2022-09-22T01:54:35.869Z,85.87
2022-09-22T01:59:30.317Z,85.66
2022-09-22T02:04:32.398Z,86.27
2022-09-22T02:09:27.216Z,87.29
2022-09-22T02:14:19.175Z,87.37
2022-09-22T02:19:16.812Z,87.32
2022-09-22T02:24:39.487Z,87.29
2022-09-22T02:29:34.139Z,87.27
2022-09-22T02:34:25.923Z,88.28
2022-09-22T02:39:40.259Z,87.71
2022-09-22T02:44:38.267Z,88.45
2022-09-22T02:49:30.331Z,88.44
2022-09-22T02:54:23.180Z,88.26
2022-09-22T02:59:14.973Z,88.69
2022-09-22T03:04:06.875Z,89.04
2022-09-22T03:08:58.637Z,88.84
2022-09-22T03:13:50.229Z,88.81
2022-09-22T03:18:41.872Z,89.07
2022-09-22T03:23:33.494Z,89.19
2022-09-22T03:28:25.279Z,89.02
2022-09-22T03:33:16.928Z,89.22
2022-09-22T03:38:08.608Z,88.71
2022-09-22T03:43:00.362Z,88.88
2022-09-22T03:47:54.651Z,88.86
2022-09-22T03:52:46.369Z,89.78
2022-09-22T03:57:38.406Z,90.30
2022-09-22T04:02:30.175Z,90.39
2022-09-22T04:07:21.955Z,90.55
2022-09-22T04:12:13.539Z,90.80
2022-09-22T04:17:05.957Z,90.98
2022-09-22T04:21:57.626Z,91.10
2022-09-22T04:27:15.228Z,90.98
2022-09-22T04:32:02.028Z,91.19
2022-09-22T04:36:53.579Z,91.60
2022-09-22T04:41:45.392Z,91.80
2022-09-22T04:46:37.049Z,92.13
2022-09-22T04:51:28.704Z,92.36
2022-09-22T04:56:20.606Z,92.00
2022-09-22T05:01:12.369Z,92.52
2022-09-22T05:06:06.242Z,92.63
2022-09-22T05:10:57.908Z,92.44
2022-09-22T05:15:49.436Z,92.32
2022-09-22T05:20:41.140Z,92.17
2022-09-22T05:25:33.378Z,92.66
2022-09-22T05:30:26.729Z,93.06
2022-09-22T05:35:21.454Z,92.87
2022-09-22T05:40:14.036Z,92.88
2022-09-22T05:45:06.206Z,92.68
2022-09-22T05:49:58.254Z,93.21
2022-09-22T05:54:50.076Z,93.24
2022-09-22T05:59:41.721Z,93.50
2022-09-22T06:04:33.308Z,93.12
2022-09-22T06:09:24.969Z,93.05
2022-09-22T06:14:16.676Z,93.03
2022-09-22T06:19:08.315Z,92.99
2022-09-22T06:24:00.287Z,92.79
2022-09-22T06:28:52.063Z,93.59
2022-09-22T06:33:48.614Z,92.76
2022-09-22T06:38:40.209Z,93.35
2022-09-22T06:43:37.849Z,93.38
2022-09-22T06:48:29.769Z,92.71
2022-09-22T06:53:24.680Z,92.97
2022-09-22T06:58:18.187Z,92.82
2022-09-22T07:03:13.776Z,92.44
2022-09-22T07:08:06.428Z,91.24
2022-09-22T07:13:01.781Z,90.82
2022-09-22T07:17:54.200Z,90.20
2022-09-22T07:22:47.513Z,88.86
2022-09-22T07:27:40.191Z,86.75
2022-09-22T07:32:36.082Z,85.14
2022-09-22T07:37:33.582Z,84.13
2022-09-22T07:42:25.272Z,81.88
2022-09-22T07:47:36.853Z,79.93
2022-09-22T07:52:30.182Z,79.30
2022-09-22T07:57:21.920Z,78.38
2022-09-22T08:02:16.089Z,78.50
2022-09-22T08:07:07.729Z,78.24
2022-09-22T08:12:00.047Z,76.02
2022-09-22T08:16:53.525Z,74.88
2022-09-22T08:21:49.299Z,75.51
2022-09-22T08:26:48.360Z,73.43
2022-09-22T08:31:42.007Z,72.42
2022-09-22T08:36:34.298Z,72.50
2022-09-22T08:41:38.575Z,72.32
2022-09-22T08:46:31.948Z,71.02
2022-09-22T08:51:51.969Z,70.21
2022-09-22T08:56:55.305Z,70.00
2022-09-22T09:02:25.859Z,69.96
2022-09-22T09:07:17.559Z,70.53
2022-09-22T09:12:28.022Z,70.95
2022-09-22T09:17:24.145Z,69.50
2022-09-22T09:22:25.633Z,68.34
2022-09-22T09:27:25.269Z,65.65
2022-09-22T09:32:33.986Z,66.78
2022-09-22T09:37:25.822Z,64.70
2022-09-22T09:42:31.565Z,64.03
2022-09-22T09:47:47.776Z,62.60
2022-09-22T09:52:40.032Z,61.89
2022-09-22T09:57:31.896Z,62.07
2022-09-22T10:02:37.650Z,60.99
2022-09-22T10:07:39.960Z,60.54
2022-09-22T10:12:33.752Z,60.34
2022-09-22T10:17:40.337Z,58.71
2022-09-22T10:22:33.084Z,59.34
2022-09-22T10:27:29.942Z,57.82
2022-09-22T10:32:21.561Z,57.53
2022-09-22T10:37:16.922Z,54.28
2022-09-22T10:42:20.276Z,53.46
2022-09-22T10:47:31.432Z,54.58
2022-09-22T10:52:35.930Z,53.82
2022-09-22T10:57:37.752Z,53.44
2022-09-22T11:03:02.608Z,52.81
2022-09-22T11:08:13.121Z,52.98
2022-09-22T11:13:12.594Z,53.22
2022-09-22T11:18:24.012Z,53.23
2022-09-22T11:23:24.834Z,53.76
2022-09-22T11:28:38.255Z,54.66
2022-09-22T11:34:08.708Z,53.62
2022-09-22T11:39:15.456Z,55.38
2022-09-22T11:44:09.650Z,55.13
2022-09-22T11:49:01.633Z,55.16
2022-09-22T11:53:53.280Z,54.78
2022-09-22T11:58:46.736Z,54.15
2022-09-22T12:03:44.178Z,55.67
2022-09-22T12:08:43.246Z,55.20
2022-09-22T12:13:41.390Z,55.24
2022-09-22T12:18:52.427Z,55.97
2022-09-22T12:23:51.307Z,55.70
2022-09-22T12:28:48.201Z,55.92
2022-09-22T12:33:55.477Z,56.62
2022-09-22T12:38:47.481Z,56.57
2022-09-22T12:43:39.188Z,56.97
2022-09-22T12:48:34.790Z,56.87
2022-09-22T12:53:28.734Z,57.34
2022-09-22T12:58:20.456Z,57.46
2022-09-22T13:03:38.157Z,57.53
2022-09-22T13:08:32.851Z,57.58
2022-09-22T13:13:46.855Z,58.60
2022-09-22T13:18:41.318Z,58.07
2022-09-22T13:23:33.758Z,58.58
2022-09-22T13:28:26.044Z,59.08
2022-09-22T13:33:24.057Z,59.71
2022-09-22T13:38:15.725Z,60.03
2022-09-22T13:43:10.665Z,62.24
2022-09-22T13:48:10.215Z,64.52
2022-09-22T13:53:02.607Z,67.47
2022-09-22T13:57:57.701Z,70.73
2022-09-22T14:02:49.489Z,72.18
2022-09-22T14:08:00.863Z,73.91
2022-09-22T14:12:52.953Z,75.38
2022-09-22T14:17:44.788Z,77.03
2022-09-22T14:22:42.610Z,77.35
2022-09-22T14:27:43.026Z,78.30
2022-09-22T14:32:40.955Z,78.89
2022-09-22T14:37:41.935Z,78.90
2022-09-22T14:42:34.207Z,79.87
2022-09-22T14:47:30.518Z,79.68
2022-09-22T14:52:31.788Z,80.21
2022-09-22T14:57:25.595Z,79.93
2022-09-22T15:02:32.673Z,81.69
2022-09-22T15:07:29.094Z,81.42
2022-09-22T15:12:46.171Z,81.73
2022-09-22T15:17:59.916Z,83.01
2022-09-22T15:22:56.102Z,83.74
2022-09-22T15:27:51.154Z,83.35
2022-09-22T15:32:48.430Z,83.00
2022-09-22T15:37:42.358Z,83.47
2022-09-22T15:42:35.183Z,83.58
2022-09-22T15:47:28.996Z,82.40
2022-09-22T15:52:20.676Z,82.59
2022-09-22T15:57:13.830Z,82.93
2022-09-22T16:02:11.379Z,83.75
2022-09-22T16:07:08.534Z,84.04
2022-09-22T16:12:00.530Z,84.45
2022-09-22T16:16:52.730Z,84.65
2022-09-22T16:21:54.261Z,84.97
2022-09-22T16:26:53.357Z,85.63
2022-09-22T16:31:45.822Z,86.35
2022-09-22T16:36:41.918Z,86.09
2022-09-22T16:41:37.773Z,86.63
2022-09-22T16:46:31.563Z,87.59
2022-09-22T16:51:23.984Z,87.25
2022-09-22T16:56:16.428Z,87.39
2022-09-22T17:01:08.713Z,88.05
2022-09-22T17:06:08.857Z,88.31
2022-09-22T17:11:00.557Z,88.79
2022-09-22T17:16:10.617Z,89.16
2022-09-22T17:21:02.317Z,89.36
2022-09-22T17:25:53.960Z,89.45
2022-09-22T17:30:57.588Z,89.20
2022-09-22T17:35:49.306Z,90.14
2022-09-22T17:40:43.837Z,91.47
2022-09-22T17:45:35.485Z,91.19
2022-09-22T17:50:45.877Z,91.54
2022-09-22T17:55:38.332Z,91.48
2022-09-22T18:00:30.768Z,91.62
2022-09-22T18:05:28.094Z,91.45
2022-09-22T18:10:20.009Z,91.47
2022-09-22T18:15:13.459Z,92.21
2022-09-22T18:20:05.591Z,92.63
2022-09-22T18:24:57.297Z,92.78
2022-09-22T18:29:53.231Z,92.78
2022-09-22T18:34:44.942Z,92.39
2022-09-22T18:39:39.020Z,92.58
2022-09-22T18:44:30.696Z,93.21
2022-09-22T18:49:22.683Z,93.16
2022-09-22T18:54:15.573Z,93.39
2022-09-22T18:59:11.589Z,94.01
2022-09-22T19:04:06.387Z,93.82
2022-09-22T19:08:58.093Z,94.39
2022-09-22T19:13:51.128Z,95.06
2022-09-22T19:18:42.973Z,95.68
2022-09-22T19:23:34.557Z,95.99
2022-09-22T19:28:26.347Z,95.52
2022-09-22T19:33:18.307Z,95.72
2022-09-22T19:38:10.380Z,95.89
2022-09-22T19:43:02.944Z,95.84
2022-09-22T19:47:58.525Z,95.81
2022-09-22T19:52:50.299Z,95.63
2022-09-22T19:57:41.995Z,95.88
2022-09-22T20:02:33.711Z,95.54
2022-09-22T20:07:27.815Z,95.03
2022-09-22T20:12:19.690Z,95.69
2022-09-22T20:17:11.344Z,95.95
2022-09-22T20:22:18.193Z,95.72
2022-09-22T20:27:09.860Z,95.71
2022-09-22T20:32:02.174Z,95.77
2022-09-22T20:36:53.746Z,96.06
2022-09-22T20:41:45.407Z,96.34
2022-09-22T20:46:37.294Z,96.07
2022-09-22T20:51:29.094Z,96.15
2022-09-22T20:56:20.754Z,96.17
2022-09-22T21:01:15.340Z,96.16
2022-09-22T21:06:09.910Z,95.79
2022-09-22T21:11:01.604Z,95.56
2022-09-22T21:16:13.907Z,94.51
2022-09-22T21:21:08.229Z,94.98
2022-09-22T21:26:06.026Z,95.00
2022-09-22T21:31:01.442Z,94.99
2022-09-22T21:36:03.213Z,95.88
2022-09-22T21:41:02.221Z,96.40
2022-09-22T21:46:05.880Z,96.47
2022-09-22T21:51:06.266Z,97.26
2022-09-22T21:56:00.211Z,97.37
2022-09-22T22:00:52.398Z,97.38
2022-09-22T22:05:44.100Z,97.23
2022-09-22T22:10:39.269Z,97.04
2022-09-22T22:15:31.343Z,97.61
2022-09-22T22:20:23.513Z,97.46
2022-09-22T22:25:17.859Z,97.32
2022-09-22T22:30:10.378Z,98.07
2022-09-22T22:35:03.061Z,97.79
2022-09-22T22:39:54.919Z,98.33
2022-09-22T22:44:46.631Z,98.29
2022-09-22T22:49:38.178Z,98.38
2022-09-22T22:54:29.850Z,98.56
2022-09-22T22:59:21.410Z,99.24
2022-09-22T23:04:13.154Z,98.89
2022-09-22T23:09:06.722Z,99.29
2022-09-22T23:14:03.160Z,98.97
2022-09-22T23:18:57.821Z,99.52
2022-09-22T23:23:50.077Z,99.67
2022-09-22T23:28:42.852Z,99.58
2022-09-22T23:33:40.324Z,100.00
2022-09-22T23:38:33.516Z,100.00
2022-09-22T23:43:26.733Z,99.54
2022-09-22T23:48:20.020Z,99.39
2022-09-22T23:53:13.082Z,99.71
2022-09-22T23:58:05.289Z,99.39
